Terminal Aerodrome Forecast
Issued by NWS

Home | Current Version | Previous Version | Text Only | Print | Product List | Glossary On
Versions: 1 2 3 4 5 6 7 8 9 10 11 12 13 14 15 16
000
FTUS46 KSEW 041750 AAA
TAFCLM
TAF AMD
KCLM 041750Z 0418/0518 34006KT P6SM SCT015 BKN040
     FM042300 31010KT P6SM SCT040 BKN200
     FM050900 VRB03KT P6SM SCT060=

USA.gov is the U.S. government's official web portal to all federal, state and local government web resources and services.